»·PEaware :: HYDRA63 KMAF-KABI

HYDRA63 :: KMAF-KABI

FLIGHT INFORMATION

Flight Status: Arrived
Operator: Unknown
More flights by this operator :: More flights under this callsign
Pilot: 47th FTW Laughlin (28783)
Aircraft: BEECH AIRCRAFT T-6A TEXAN
(TEX2)
More flights by this aircraft type
Origin: KMAF Midland Intl
United States
Destination: KABI Abilene Regl
United States
More flights between these airports :: More routes between these airports
Route: MAF V546 BGS V16 ABI
File this flight plan on PilotEdge
Remarks: ILS RWY 35R KABI FOLLOWED BY VECTORS LOC RWY 17R KABI
Altitude:
(Current/Filed)
21,000ft
Speed:
(Current/Filed)
250kts
Departed: 30-Jul-20 12:03 PM
Arrived: 30-Jul-20 12:52 PM
Distance/Time
Traveled:
131nm/0:49
Distance/Time
To Go:
Arrived

Flight Plot

Page will automatically refresh every two minutes.

Flight plan parsing failed; only flown route is shown


Map Options




Map Legend


Flown Route
Filed Route
Departure Airport
Arrival Airport
Navaid (VOR, NDB)
Fix

Horizontal Profiles

Position Reports

Time Latitude Longitude Heading Altitude Ground
Speed
30-Jul-20 11:46 31.939239 -102.206796 175 2875ft 0kts
30-Jul-20 11:47 31.939239 -102.206796 175 2875ft 0kts
30-Jul-20 11:48 31.939239 -102.206796 175 2875ft 0kts
30-Jul-20 11:49 31.939239 -102.206796 175 2875ft 0kts
30-Jul-20 11:50 31.939239 -102.206796 175 2875ft 0kts
30-Jul-20 11:51 31.939239 -102.206796 175 2875ft 0kts
30-Jul-20 11:52 31.939239 -102.206796 175 2875ft 0kts
30-Jul-20 11:53 31.939239 -102.206796 175 2875ft 0kts
30-Jul-20 11:54 31.939239 -102.206796 175 2875ft 0kts
30-Jul-20 11:55 31.939239 -102.206796 175 2875ft 0kts
30-Jul-20 11:56 31.939239 -102.206796 175 2875ft 0kts
30-Jul-20 11:57 31.939239 -102.206796 175 2875ft 0kts
30-Jul-20 11:58 31.939222 -102.206794 175 2875ft 1kts
30-Jul-20 11:59 31.938255 -102.203782 90 2875ft 12kts
30-Jul-20 12:00 31.943234 -102.199541 359 2875ft 32kts
30-Jul-20 12:01 31.946107 -102.198413 87 2875ft 0kts
30-Jul-20 12:02 31.938694 -102.197091 174 2994ft 109kts
30-Jul-20 12:03 31.896524 -102.195522 146 4994ft 182kts
30-Jul-20 12:04 31.904328 -102.154669 15 8617ft 178kts
30-Jul-20 12:05 31.953128 -102.143924 12 12055ft 191kts
30-Jul-20 12:06 32.005890 -102.129312 15 15341ft 203kts
30-Jul-20 12:07 32.057095 -102.106571 56 18402ft 204kts
30-Jul-20 12:08 32.087611 -102.050792 60 21044ft 213kts
30-Jul-20 12:09 32.124258 -101.980612 58 21039ft 275kts
30-Jul-20 12:10 32.167229 -101.901238 59 21050ft 289kts
30-Jul-20 12:11 32.210424 -101.820708 59 20985ft 284kts
30-Jul-20 12:13 32.251849 -101.743330 57 20952ft 280kts
30-Jul-20 12:14 32.296271 -101.669477 54 21098ft 273kts
30-Jul-20 12:15 32.343249 -101.598121 55 21088ft 273kts
30-Jul-20 12:16 32.383894 -101.520819 57 20941ft 277kts
30-Jul-20 12:17 32.426899 -101.446267 54 20986ft 277kts
30-Jul-20 12:18 32.466362 -101.368527 79 21103ft 278kts
30-Jul-20 12:19 32.451583 -101.277496 105 20810ft 288kts
30-Jul-20 12:20 32.435440 -101.186740 96 21158ft 279kts
30-Jul-20 12:21 32.425006 -101.095525 104 21012ft 273kts
30-Jul-20 12:22 32.421901 -101.006517 86 21061ft 272kts
30-Jul-20 12:23 32.426488 -100.916449 89 20959ft 274kts
30-Jul-20 12:24 32.431912 -100.826819 86 21009ft 272kts
30-Jul-20 12:25 32.435988 -100.737987 91 20188ft 265kts
30-Jul-20 12:26 32.434613 -100.652378 91 17448ft 257kts
30-Jul-20 12:27 32.438513 -100.568889 89 15147ft 251kts
30-Jul-20 12:28 32.443820 -100.488255 85 13174ft 245kts
30-Jul-20 12:29 32.450747 -100.409021 89 11051ft 237kts
30-Jul-20 12:30 32.451651 -100.332603 90 8989ft 228kts
30-Jul-20 12:30 32.455447 -100.271231 89 7248ft 220kts
30-Jul-20 12:31 32.458180 -100.200861 85 5178ft 212kts
30-Jul-20 12:33 32.468287 -100.123893 87 4525ft 194kts
30-Jul-20 12:33 32.470957 -100.070823 88 4514ft 194kts
30-Jul-20 12:34 32.474230 -100.007076 90 4620ft 189kts
30-Jul-20 12:35 32.476682 -99.943433 87 4364ft 191kts
30-Jul-20 12:36 32.480722 -99.879993 82 3911ft 192kts
30-Jul-20 12:37 32.465200 -99.829297 132 4240ft 167kts
30-Jul-20 12:38 32.434349 -99.791749 133 4417ft 155kts
30-Jul-20 12:39 32.406494 -99.755084 132 4491ft 151kts
30-Jul-20 12:40 32.377223 -99.719323 134 4499ft 150kts
30-Jul-20 12:41 32.348592 -99.683252 132 4500ft 150kts
30-Jul-20 12:42 32.307958 -99.675232 181 4152ft 162kts
30-Jul-20 12:43 32.272155 -99.674552 177 4163ft 158kts
30-Jul-20 12:44 32.237306 -99.650189 134 4124ft 153kts
30-Jul-20 12:45 32.214925 -99.659215 309 4177ft 162kts
30-Jul-20 12:46 32.255930 -99.675513 1 4029ft 168kts
30-Jul-20 12:47 32.299998 -99.674844 3 3722ft 124kts
30-Jul-20 12:48 32.335289 -99.674531 3 2868ft 127kts
30-Jul-20 12:49 32.369603 -99.674698 3 2222ft 119kts
30-Jul-20 12:50 32.400071 -99.674725 0 1795ft 74kts
30-Jul-20 12:51 32.408415 -99.675795 268 1795ft 0kts
30-Jul-20 12:52 32.408405 -99.677344 269 1795ft 29kts
30-Jul-20 12:53 32.409520 -99.683560 0 1795ft 17kts
30-Jul-20 12:54 32.413277 -99.682475 32 1795ft 10kts
30-Jul-20 12:55 32.413754 -99.682413 182 1795ft 0kts
30-Jul-20 12:56 32.413754 -99.682413 182 1795ft 0kts

Navigation Log

Ident Type
Flight plan parsing failed, navigation log unavailable